Gran Canaria, Spain
Current Conditions -  °F | °C
As of 8:00 PM on Friday 31 Oct 2014 (Local Time) from GCLP Reporting Station
Few Clouds Few Clouds  
Wind Chill: 23°   Ceiling: Unl
Heat Index: 23°   Visibility: 6mi
Dew Point: 17°   Wind: 17mph
Humidity: 69%   Direction: 360°N
Pressure: 30.03"   Gusts: NA
Location:  28.14°N, 15.43°W
Report Text: GCLP 312000Z 36015KT 9999 FEW025 23/17 Q1017 NOSIG
Loading
Personal Weather Stations






























Interactive Weather Map
Tropical Storm Tracking
New forecast layout! Learn more

10-Day Weather Forecast

Advertisements
Track Severe Weather on mobile